Time;durP1;ratioP1;P1;durP2;ratioP2;P2;SDS_P1;SDS_P2;PMS_P1;PMS_P2;Temp;Humidity;BMP_temperature;BMP_pressure;BME280_temperature;BME280_humidity;BME280_pressure;Samples;Min_cycle;Max_cycle;Signal;HPM_P1;HPM_P2
2022/04/27 00:02:17;;;;;;;;;10.00;7.00;;;;;;;;5162661;27;8814;-73
2022/04/27 00:04:42;;;;;;;;;7.00;5.00;;;;;;;;5161400;27;22561;-73
2022/04/27 00:07:07;;;;;;;;;5.50;5.50;;;;;;;;5161999;27;21573;-73
2022/04/27 00:09:33;;;;;;;;;5.25;5.00;;;;;;;;5162251;27;11625;-74
2022/04/27 00:12:00;;;;;;;;;5.50;4.50;;;;;;;;5161987;27;8786;-73
2022/04/27 00:14:26;;;;;;;;;10.00;6.00;;;;;;;;5162579;27;11395;-73
2022/04/27 00:16:52;;;;;;;;;6.25;6.00;;;;;;;;5162018;27;21867;-73
2022/04/27 00:19:17;;;;;;;;;5.25;5.00;;;;;;;;5162168;27;16327;-73
2022/04/27 00:21:42;;;;;;;;;5.25;3.50;;;;;;;;5160880;27;10492;-73
2022/04/27 00:24:07;;;;;;;;;5.25;5.25;;;;;;;;5161708;27;8812;-73
2022/04/27 00:26:33;;;;;;;;;6.25;5.00;;;;;;;;5161516;27;8766;-73
2022/04/27 00:28:58;;;;;;;;;4.50;3.00;;;;;;;;5160158;27;13119;-74
2022/04/27 00:31:24;;;;;;;;;5.50;4.50;;;;;;;;5162001;27;10265;-74
2022/04/27 00:33:50;;;;;;;;;5.25;5.25;;;;;;;;5162660;27;11396;-73
2022/04/27 00:36:15;;;;;;;;;5.00;5.00;;;;;;;;5162490;27;11456;-73
2022/04/27 00:38:40;;;;;;;;;5.75;5.75;;;;;;;;5163011;27;8789;-73
2022/04/27 00:41:05;;;;;;;;;5.50;5.50;;;;;;;;5162901;27;8799;-73
2022/04/27 00:43:35;;;;;;;;;4.50;3.00;;;;;;;;5162885;27;8793;-76
2022/04/27 00:46:00;;;;;;;;;5.75;5.50;;;;;;;;5162906;27;11403;-72
2022/04/27 00:48:25;;;;;;;;;1.00;1.00;;;;;;;;5162287;27;11405;-72
2022/04/27 00:50:51;;;;;;;;;9.25;6.00;;;;;;;;5162275;27;11435;-72
2022/04/27 00:53:17;;;;;;;;;4.50;4.50;;;;;;;;5160660;27;12711;-72
2022/04/27 00:55:42;;;;;;;;;9.00;5.00;;;;;;;;5161723;27;11807;-73
2022/04/27 00:58:09;;;;;;;;;9.00;7.00;;;;;;;;5161610;27;11863;-72
2022/04/27 01:00:34;;;;;;;;;5.25;5.00;;;;;;;;5162400;27;9520;-71
2022/04/27 01:03:00;;;;;;;;;6.00;6.00;;;;;;;;5161738;27;11503;-72
2022/04/27 01:05:25;;;;;;;;;7.25;6.25;;;;;;;;5162003;27;10855;-72
2022/04/27 01:07:52;;;;;;;;;4.50;4.50;;;;;;;;5161548;27;11732;-71
2022/04/27 01:10:18;;;;;;;;;6.00;6.00;;;;;;;;5161255;27;12646;-71
2022/04/27 01:12:43;;;;;;;;;3.00;3.00;;;;;;;;5161420;27;11447;-71
2022/04/27 01:15:09;;;;;;;;;5.50;5.50;;;;;;;;5161572;27;8816;-71
2022/04/27 01:17:34;;;;;;;;;8.00;6.00;;;;;;;;5161998;27;12685;-71
2022/04/27 01:19:59;;;;;;;;;6.50;5.75;;;;;;;;5162180;27;11363;-71
2022/04/27 01:22:27;;;;;;;;;6.50;6.00;;;;;;;;5161834;27;11280;-71
2022/04/27 01:24:52;;;;;;;;;4.50;4.00;;;;;;;;5161210;27;8809;-71
2022/04/27 01:27:17;;;;;;;;;7.00;5.75;;;;;;;;5161520;27;11381;-71
2022/04/27 01:29:42;;;;;;;;;5.50;5.50;;;;;;;;5161337;27;11377;-71
2022/04/27 01:32:08;;;;;;;;;3.50;3.50;;;;;;;;5161311;27;11476;-72
2022/04/27 01:34:33;;;;;;;;;5.50;5.50;;;;;;;;5157240;27;9533;-71
2022/04/27 01:37:59;;;;;;;;;6.25;4.00;;;;;;;;5150469;27;9653;-71
2022/04/27 01:39:44;;;;;;;;;3.00;3.00;;;;;;;;5150245;27;11534;-72
2022/04/27 01:42:09;;;;;;;;;8.50;5.75;;;;;;;;5149313;27;11557;-70
2022/04/27 01:44:34;;;;;;;;;7.00;5.00;;;;;;;;5149462;27;11510;-70
2022/04/27 01:47:00;;;;;;;;;5.25;5.25;;;;;;;;5150759;27;11299;-72
2022/04/27 01:49:25;;;;;;;;;5.00;2.75;;;;;;;;5148631;27;11279;-70
2022/04/27 01:54:36;;;;;;;;;6.00;6.00;;;;;;;;5149668;27;12346;-71
2022/04/27 01:57:01;;;;;;;;;3.75;3.50;;;;;;;;5148473;27;11813;-70
2022/04/27 01:59:26;;;;;;;;;4.00;4.00;;;;;;;;5145061;27;11529;-70
2022/04/27 02:01:52;;;;;;;;;5.00;4.00;;;;;;;;5140081;27;11790;-71
2022/04/27 02:04:17;;;;;;;;;5.00;5.00;;;;;;;;5139651;27;8924;-70
2022/04/27 02:06:42;;;;;;;;;5.50;5.50;;;;;;;;5140392;27;8776;-70
2022/04/27 02:09:08;;;;;;;;;5.75;5.00;;;;;;;;5140273;27;8764;-70
2022/04/27 02:11:33;;;;;;;;;5.00;5.00;;;;;;;;5139943;27;8776;-70
2022/04/27 02:13:59;;;;;;;;;4.50;4.50;;;;;;;;5140671;27;8799;-70
2022/04/27 02:16:25;;;;;;;;;5.75;5.50;;;;;;;;5140242;27;11308;-71
2022/04/27 02:18:51;;;;;;;;;8.50;5.25;;;;;;;;5140078;27;10515;-70
2022/04/27 02:21:17;;;;;;;;;5.50;4.75;;;;;;;;5139832;27;11662;-69
2022/04/27 02:23:43;;;;;;;;;3.50;3.50;;;;;;;;5138301;27;12174;-70
2022/04/27 02:26:08;;;;;;;;;5.50;5.50;;;;;;;;5140279;27;11624;-70
2022/04/27 02:28:34;;;;;;;;;8.00;4.25;;;;;;;;5140157;27;11523;-70
2022/04/27 02:30:59;;;;;;;;;5.25;4.25;;;;;;;;5138451;27;11634;-69
2022/04/27 02:33:24;;;;;;;;;5.00;4.25;;;;;;;;5139893;27;8983;-69
2022/04/27 02:35:50;;;;;;;;;5.00;4.50;;;;;;;;5139832;27;9492;-69
2022/04/27 02:38:15;;;;;;;;;1.75;1.75;;;;;;;;5140253;27;8772;-69
2022/04/27 02:40:40;;;;;;;;;6.00;5.00;;;;;;;;5139843;27;11534;-69
2022/04/27 02:43:05;;;;;;;;;8.25;6.00;;;;;;;;5139520;27;11326;-69
2022/04/27 02:45:31;;;;;;;;;8.00;8.00;;;;;;;;5139824;27;10449;-69
2022/04/27 02:47:56;;;;;;;;;5.00;5.00;;;;;;;;5139215;27;9501;-69
2022/04/27 02:53:05;;;;;;;;;5.25;5.00;;;;;;;;5143031;27;10495;-69
2022/04/27 02:55:30;;;;;;;;;5.00;4.00;;;;;;;;5143371;27;11590;-70
2022/04/27 02:57:55;;;;;;;;;6.00;5.00;;;;;;;;5142788;27;9688;-70
2022/04/27 03:00:21;;;;;;;;;6.50;5.50;;;;;;;;5142841;27;8772;-70
2022/04/27 03:02:46;;;;;;;;;8.25;6.50;;;;;;;;5142642;27;9483;-70
2022/04/27 03:05:11;;;;;;;;;5.50;5.50;;;;;;;;5142503;27;10324;-70
2022/04/27 03:07:37;;;;;;;;;4.00;4.00;;;;;;;;5142763;27;10464;-69
2022/04/27 03:10:03;;;;;;;;;5.25;5.25;;;;;;;;5142640;27;11836;-70
2022/04/27 03:12:28;;;;;;;;;6.00;6.00;;;;;;;;5143545;27;11394;-71
2022/04/27 03:14:53;;;;;;;;;6.25;4.50;;;;;;;;5142921;27;11487;-71
2022/04/27 03:17:19;;;;;;;;;8.00;5.75;;;;;;;;5142774;27;10651;-70
2022/04/27 03:19:44;;;;;;;;;6.00;4.75;;;;;;;;5143018;27;11729;-69
2022/04/27 03:22:09;;;;;;;;;4.75;4.75;;;;;;;;5143065;27;8798;-70
2022/04/27 03:24:35;;;;;;;;;5.00;5.00;;;;;;;;5142829;27;10027;-70
2022/04/27 03:27:00;;;;;;;;;10.75;5.50;;;;;;;;5142954;27;11702;-68
2022/04/27 03:29:25;;;;;;;;;6.00;5.00;;;;;;;;5141880;27;21478;-69
2022/04/27 03:31:50;;;;;;;;;4.50;4.50;;;;;;;;5141949;27;21342;-69
2022/04/27 03:34:16;;;;;;;;;5.25;5.25;;;;;;;;5142100;27;11503;-69
2022/04/27 03:36:41;;;;;;;;;4.75;3.50;;;;;;;;5141783;27;11484;-69
2022/04/27 03:39:06;;;;;;;;;5.75;5.00;;;;;;;;5142222;27;11550;-68
2022/04/27 03:41:32;;;;;;;;;7.50;7.00;;;;;;;;5142718;27;11337;-68
2022/04/27 03:43:57;;;;;;;;;5.00;5.00;;;;;;;;5142560;27;10417;-68
2022/04/27 03:46:22;;;;;;;;;5.25;4.75;;;;;;;;5142818;27;10297;-68
2022/04/27 03:48:48;;;;;;;;;8.00;5.75;;;;;;;;5142591;27;10539;-68
2022/04/27 03:51:13;;;;;;;;;4.25;4.25;;;;;;;;5142291;27;11399;-69
2022/04/27 03:53:38;;;;;;;;;8.00;5.00;;;;;;;;5142139;27;10686;-70
2022/04/27 03:56:04;;;;;;;;;5.50;5.50;;;;;;;;5140717;27;12050;-70
2022/04/27 03:58:30;;;;;;;;;4.00;4.00;;;;;;;;5141757;27;11350;-69
2022/04/27 04:00:55;;;;;;;;;5.00;5.00;;;;;;;;5140325;27;11413;-72
2022/04/27 04:03:20;;;;;;;;;8.50;5.75;;;;;;;;5141556;27;8819;-72
2022/04/27 04:05:46;;;;;;;;;5.00;5.00;;;;;;;;5141870;27;11277;-70
2022/04/27 04:08:11;;;;;;;;;6.00;5.00;;;;;;;;5141823;27;11488;-71
2022/04/27 04:10:36;;;;;;;;;7.00;4.75;;;;;;;;5142409;27;8789;-71
2022/04/27 04:13:02;;;;;;;;;6.00;5.75;;;;;;;;5142416;27;11284;-71
2022/04/27 04:15:27;;;;;;;;;8.50;7.00;;;;;;;;5142209;27;9041;-71
2022/04/27 04:17:53;;;;;;;;;7.00;6.00;;;;;;;;5140708;27;11939;-71
2022/04/27 04:20:18;;;;;;;;;8.75;4.00;;;;;;;;5142096;27;11455;-71
2022/04/27 04:22:45;;;;;;;;;5.50;4.00;;;;;;;;5141977;27;10621;-71
2022/04/27 04:30:37;;;;;;;;;6.00;5.00;;;;;;;;5141962;27;11400;-70
2022/04/27 04:33:03;;;;;;;;;5.25;5.25;;;;;;;;5141380;27;12241;-70
2022/04/27 04:35:28;;;;;;;;;8.00;5.00;;;;;;;;5141962;27;11710;-70
2022/04/27 04:37:54;;;;;;;;;8.50;5.00;;;;;;;;5141562;27;11752;-71
2022/04/27 04:40:19;;;;;;;;;4.75;4.50;;;;;;;;5141497;27;8775;-71
2022/04/27 04:42:45;;;;;;;;;8.00;5.00;;;;;;;;5141358;27;11394;-70
2022/04/27 04:45:10;;;;;;;;;9.00;8.00;;;;;;;;5141028;27;11540;-71
2022/04/27 04:47:35;;;;;;;;;8.00;6.00;;;;;;;;5141290;27;9804;-70
2022/04/27 04:50:01;;;;;;;;;7.00;7.00;;;;;;;;5141899;27;8792;-70
2022/04/27 04:52:27;;;;;;;;;7.50;5.00;;;;;;;;5141811;27;8856;-70
2022/04/27 04:54:52;;;;;;;;;4.25;4.25;;;;;;;;5141567;27;9445;-71
2022/04/27 04:57:17;;;;;;;;;6.00;5.75;;;;;;;;5141551;27;11283;-71
2022/04/27 04:59:42;;;;;;;;;7.50;5.00;;;;;;;;5141452;27;10771;-70
2022/04/27 05:02:08;;;;;;;;;5.00;5.00;;;;;;;;5140966;27;11316;-70
2022/04/27 05:04:33;;;;;;;;;6.00;5.25;;;;;;;;5140769;27;8854;-71
2022/04/27 05:06:59;;;;;;;;;5.00;5.00;;;;;;;;5141070;27;11529;-71
2022/04/27 05:09:24;;;;;;;;;6.00;5.00;;;;;;;;5148566;27;11549;-71
2022/04/27 05:11:49;;;;;;;;;6.00;5.25;;;;;;;;5140416;27;8827;-70
2022/04/27 05:14:14;;;;;;;;;8.00;4.75;;;;;;;;5139988;27;8784;-70
2022/04/27 05:16:40;;;;;;;;;4.25;4.00;;;;;;;;5140365;27;10592;-70
2022/04/27 05:19:05;;;;;;;;;12.00;8.50;;;;;;;;5141264;27;11884;-70
2022/04/27 05:21:30;;;;;;;;;8.25;7.50;;;;;;;;5140547;27;21489;-70
2022/04/27 05:23:56;;;;;;;;;8.75;6.50;;;;;;;;5140730;27;21657;-70
2022/04/27 05:26:21;;;;;;;;;9.00;9.00;;;;;;;;5141212;27;8781;-71
2022/04/27 05:34:14;;;;;;;;;13.00;11.50;;;;;;;;5140186;27;11516;-71
2022/04/27 05:36:39;;;;;;;;;15.00;9.00;;;;;;;;5140185;27;21895;-70
2022/04/27 05:39:05;;;;;;;;;14.25;9.00;;;;;;;;5138177;27;21596;-70
2022/04/27 05:41:30;;;;;;;;;15.75;10.00;;;;;;;;5141249;27;8801;-70
2022/04/27 05:43:55;;;;;;;;;11.50;10.50;;;;;;;;5140389;27;22566;-70
2022/04/27 05:46:21;;;;;;;;;10.50;10.50;;;;;;;;5146430;27;11346;-71
2022/04/27 05:48:46;;;;;;;;;12.00;10.75;;;;;;;;5160423;27;8937;-72
2022/04/27 05:51:11;;;;;;;;;13.25;12.25;;;;;;;;5160943;27;11353;-75
2022/04/27 05:53:36;;;;;;;;;12.75;11.25;;;;;;;;5161241;27;11738;-74
2022/04/27 05:56:02;;;;;;;;;12.75;12.00;;;;;;;;5160618;27;9691;-72
2022/04/27 05:58:28;;;;;;;;;16.75;12.00;;;;;;;;5161393;27;9991;-73
2022/04/27 06:00:53;;;;;;;;;12.00;12.00;;;;;;;;5161041;27;8919;-71
2022/04/27 06:03:18;;;;;;;;;13.50;10.25;;;;;;;;5160630;27;8821;-72
2022/04/27 06:05:44;;;;;;;;;12.00;11.00;;;;;;;;5160703;27;11686;-73
2022/04/27 06:08:09;;;;;;;;;15.33;15.00;;;;;;;;5160387;27;11333;-78
2022/04/27 06:10:35;;;;;;;;;8.50;8.50;;;;;;;;5160413;27;10692;-79
2022/04/27 06:13:00;;;;;;;;;15.50;11.50;;;;;;;;5160376;27;22137;-81
2022/04/27 06:15:25;;;;;;;;;9.00;9.00;;;;;;;;5160403;27;22233;-77
2022/04/27 06:17:51;;;;;;;;;12.75;12.75;;;;;;;;5158715;27;24146;-80
2022/04/27 06:20:16;;;;;;;;;15.75;12.25;;;;;;;;5160185;27;23464;-79
2022/04/27 06:22:41;;;;;;;;;13.75;12.75;;;;;;;;5160718;27;10891;-83
2022/04/27 06:25:07;;;;;;;;;10.75;10.75;;;;;;;;5161678;27;11854;-82
2022/04/27 06:27:32;;;;;;;;;9.25;9.25;;;;;;;;5154135;27;8996;-78
2022/04/27 06:29:58;;;;;;;;;14.00;13.50;;;;;;;;5152852;27;22846;-80
2022/04/27 06:32:23;;;;;;;;;11.00;9.25;;;;;;;;5151582;27;22603;-78
2022/04/27 06:34:49;;;;;;;;;11.00;9.50;;;;;;;;5149773;27;22609;-74
2022/04/27 06:37:14;;;;;;;;;11.50;9.25;;;;;;;;5150565;27;8812;-73
2022/04/27 06:39:40;;;;;;;;;13.50;11.50;;;;;;;;5154077;27;8796;-74
2022/04/27 06:42:06;;;;;;;;;12.75;12.00;;;;;;;;5152073;27;21759;-75
2022/04/27 06:44:32;;;;;;;;;9.50;9.50;;;;;;;;5153924;27;11561;-71
2022/04/27 06:46:57;;;;;;;;;15.00;15.00;;;;;;;;5151162;27;22949;-74
2022/04/27 06:49:22;;;;;;;;;12.50;10.00;;;;;;;;5152386;27;22253;-73
2022/04/27 06:51:48;;;;;;;;;12.00;10.00;;;;;;;;5152576;27;10396;-76
2022/04/27 06:54:13;;;;;;;;;9.00;7.00;;;;;;;;5151155;27;8828;-73
2022/04/27 06:56:38;;;;;;;;;8.25;8.00;;;;;;;;5152733;27;22170;-71
2022/04/27 06:59:04;;;;;;;;;13.75;9.75;;;;;;;;5150257;27;10324;-74
2022/04/27 07:01:29;;;;;;;;;10.00;10.00;;;;;;;;5150585;27;21908;-70
2022/04/27 07:03:55;;;;;;;;;8.25;7.50;;;;;;;;5151531;27;21408;-71
2022/04/27 07:06:21;;;;;;;;;13.25;10.25;;;;;;;;5151505;27;22439;-71
2022/04/27 07:08:47;;;;;;;;;12.00;9.00;;;;;;;;5150969;27;22261;-73
2022/04/27 07:11:12;;;;;;;;;10.00;9.00;;;;;;;;5152920;27;22473;-72
2022/04/27 07:13:38;;;;;;;;;12.25;12.00;;;;;;;;5150851;27;8803;-72
2022/04/27 07:16:05;;;;;;;;;8.75;8.75;;;;;;;;5151404;27;21657;-71
2022/04/27 07:18:30;;;;;;;;;13.75;11.75;;;;;;;;5148964;27;23610;-72
2022/04/27 07:20:56;;;;;;;;;11.50;11.50;;;;;;;;5152519;27;22226;-73
2022/04/27 07:23:21;;;;;;;;;11.50;10.25;;;;;;;;5151196;27;11633;-73
2022/04/27 07:25:46;;;;;;;;;18.00;12.50;;;;;;;;5151713;27;8914;-72
2022/04/27 07:28:12;;;;;;;;;12.00;10.50;;;;;;;;5144677;27;11599;-72
2022/04/27 07:30:37;;;;;;;;;10.00;10.00;;;;;;;;5143078;27;9809;-73
2022/04/27 07:33:03;;;;;;;;;10.25;10.25;;;;;;;;5142438;27;11571;-72
2022/04/27 07:35:28;;;;;;;;;12.75;12.00;;;;;;;;5141985;27;8752;-72
2022/04/27 07:37:54;;;;;;;;;8.50;7.50;;;;;;;;5142007;27;11560;-71
2022/04/27 07:40:19;;;;;;;;;14.75;10.50;;;;;;;;5141491;27;22369;-74
2022/04/27 07:42:44;;;;;;;;;12.00;9.00;;;;;;;;5141722;27;22769;-72
2022/04/27 07:45:10;;;;;;;;;11.00;11.00;;;;;;;;5139614;27;23421;-72
2022/04/27 07:47:42;;;;;;;;;12.50;10.50;;;;;;;;5141191;27;22892;-72
2022/04/27 07:50:08;;;;;;;;;12.25;9.50;;;;;;;;5142205;27;11598;-72
2022/04/27 07:52:33;;;;;;;;;15.00;14.00;;;;;;;;5140080;27;22031;-73
2022/04/27 07:54:59;;;;;;;;;13.75;10.50;;;;;;;;5140994;27;21566;-72
2022/04/27 07:57:27;;;;;;;;;14.25;9.75;;;;;;;;5141731;27;12623;-73
2022/04/27 07:59:53;;;;;;;;;10.50;10.00;;;;;;;;5139770;27;21729;-72
2022/04/27 08:02:18;;;;;;;;;12.50;9.50;;;;;;;;5141224;27;21760;-73
2022/04/27 08:04:43;;;;;;;;;11.25;10.25;;;;;;;;5141244;27;21487;-73
2022/04/27 08:07:08;;;;;;;;;12.25;10.50;;;;;;;;5141093;27;23262;-73
2022/04/27 08:09:34;;;;;;;;;11.00;10.00;;;;;;;;5141581;27;11593;-73
2022/04/27 08:12:00;;;;;;;;;10.25;9.00;;;;;;;;5142684;27;11932;-73
2022/04/27 08:14:25;;;;;;;;;9.25;9.25;;;;;;;;5142020;27;23241;-73
2022/04/27 08:16:51;;;;;;;;;9.50;9.25;;;;;;;;5139813;27;22003;-73
2022/04/27 08:19:17;;;;;;;;;9.00;9.00;;;;;;;;5141862;27;8795;-73
2022/04/27 08:21:43;;;;;;;;;10.00;7.00;;;;;;;;5142005;27;10059;-73
2022/04/27 08:24:11;;;;;;;;;10.50;7.00;;;;;;;;5140696;27;21557;-73
2022/04/27 08:26:36;;;;;;;;;7.00;6.00;;;;;;;;5142059;27;9604;-72
2022/04/27 08:29:02;;;;;;;;;7.25;7.25;;;;;;;;5141333;27;21303;-72
2022/04/27 08:31:27;;;;;;;;;7.00;7.00;;;;;;;;5141149;27;10526;-72
2022/04/27 08:33:53;;;;;;;;;6.00;5.33;;;;;;;;5141240;27;8839;-73
2022/04/27 08:36:18;;;;;;;;;6.00;6.00;;;;;;;;5139588;27;12201;-72
2022/04/27 08:38:43;;;;;;;;;6.67;6.67;;;;;;;;5141132;27;8811;-72
2022/04/27 08:41:09;;;;;;;;;8.33;5.00;;;;;;;;5141370;27;9544;-73
2022/04/27 08:43:34;;;;;;;;;5.00;5.00;;;;;;;;5140072;27;12011;-73
2022/04/27 08:46:01;;;;;;;;;5.00;5.00;;;;;;;;5141549;27;8866;-73
2022/04/27 08:48:27;;;;;;;;;10.00;7.50;;;;;;;;5140368;27;9478;-72
2022/04/27 08:50:52;;;;;;;;;5.00;5.00;;;;;;;;5147963;27;21436;-71
2022/04/27 08:53:18;;;;;;;;;5.67;5.00;;;;;;;;5158580;27;21878;-70
2022/04/27 08:55:44;;;;;;;;;7.67;6.00;;;;;;;;5158030;27;8887;-71
2022/04/27 08:58:10;;;;;;;;;6.50;5.00;;;;;;;;5155233;27;8811;-71
2022/04/27 09:00:35;;;;;;;;;5.00;5.00;;;;;;;;5150129;27;11863;-69
2022/04/27 09:03:19;;;;;;;;;3.33;2.67;;;;;;;;5147768;27;8852;-69
2022/04/27 09:05:48;;;;;;;;;3.75;2.00;;;;;;;;5150175;27;11398;-69
2022/04/27 09:08:13;;;;;;;;;3.00;3.00;;;;;;;;5148612;27;9898;-69
2022/04/27 09:10:39;;;;;;;;;3.33;3.33;;;;;;;;5148907;27;10848;-69
2022/04/27 09:13:04;;;;;;;;;5.00;4.67;;;;;;;;5149676;27;8824;-69
2022/04/27 09:15:29;;;;;;;;;5.00;5.00;;;;;;;;5148457;27;11524;-69
2022/04/27 09:20:48;;;;;;;;;4.00;4.00;;;;;;;;5149651;27;9500;-70
2022/04/27 09:23:23;;;;;;;;;4.25;4.25;;;;;;;;5147531;27;8800;-69
2022/04/27 09:25:52;;;;;;;;;5.75;4.75;;;;;;;;5149878;27;8788;-70
2022/04/27 09:28:18;;;;;;;;;8.00;5.00;;;;;;;;5139988;27;11422;-70
2022/04/27 09:30:46;;;;;;;;;4.00;4.00;;;;;;;;5139922;27;11294;-71
2022/04/27 09:33:12;;;;;;;;;4.25;4.25;;;;;;;;5140129;27;9655;-71
2022/04/27 09:35:37;;;;;;;;;4.00;4.00;;;;;;;;5140379;27;8962;-71
2022/04/27 09:38:13;;;;;;;;;6.00;4.67;;;;;;;;5140119;27;8788;-72
2022/04/27 09:40:45;;;;;;;;;4.50;3.25;;;;;;;;5140085;27;11381;-74
2022/04/27 09:43:14;;;;;;;;;6.50;5.00;;;;;;;;5140544;27;11625;-71
2022/04/27 09:45:41;;;;;;;;;4.50;4.50;;;;;;;;5140496;27;11453;-72
2022/04/27 09:48:08;;;;;;;;;4.00;4.00;;;;;;;;5148471;27;12441;-71
2022/04/27 09:50:55;;;;;;;;;4.25;3.00;;;;;;;;5150175;27;8781;-71
2022/04/27 09:53:20;;;;;;;;;4.75;4.00;;;;;;;;5151031;27;9527;-71
2022/04/27 09:55:48;;;;;;;;;5.00;5.00;;;;;;;;5148759;27;8816;-71
2022/04/27 09:58:18;;;;;;;;;5.00;5.00;;;;;;;;5149713;27;11715;-71
2022/04/27 10:00:44;;;;;;;;;5.75;5.00;;;;;;;;5148524;27;8816;-71
2022/04/27 10:03:10;;;;;;;;;4.00;4.00;;;;;;;;5148122;27;8820;-71
2022/04/27 10:05:36;;;;;;;;;5.33;5.00;;;;;;;;5149407;27;10731;-71
2022/04/27 10:08:02;;;;;;;;;6.00;6.00;;;;;;;;5151042;27;10274;-71
2022/04/27 10:10:27;;;;;;;;;4.00;3.33;;;;;;;;5148842;27;12085;-70
2022/04/27 10:12:53;;;;;;;;;10.00;8.00;;;;;;;;5149735;27;11872;-71
2022/04/27 10:15:19;;;;;;;;;7.00;6.00;;;;;;;;5149810;27;21324;-70
2022/04/27 10:17:44;;;;;;;;;5.67;5.67;;;;;;;;5147501;27;21609;-70
2022/04/27 10:20:29;;;;;;;;;5.67;5.67;;;;;;;;5148731;27;13666;-70
2022/04/27 10:23:13;;;;;;;;;5.00;5.00;;;;;;;;5149546;27;8918;-71
2022/04/27 10:25:38;;;;;;;;;5.00;5.00;;;;;;;;5160654;27;9231;-71
2022/04/27 10:28:15;;;;;;;;;6.33;6.00;;;;;;;;5161110;27;9030;-71
2022/04/27 10:30:42;;;;;;;;;5.00;5.00;;;;;;;;5160713;27;10360;-71
2022/04/27 10:33:08;;;;;;;;;5.00;5.00;;;;;;;;5160070;27;11096;-71
2022/04/27 10:35:33;;;;;;;;;5.50;5.50;;;;;;;;5159298;27;9634;-71
2022/04/27 10:38:05;;;;;;;;;6.00;6.00;;;;;;;;5160272;27;8762;-71
2022/04/27 10:40:33;;;;;;;;;5.25;4.75;;;;;;;;5158371;27;11827;-71
2022/04/27 10:43:07;;;;;;;;;6.25;6.25;;;;;;;;5159842;27;12797;-71
2022/04/27 10:45:33;;;;;;;;;4.00;4.00;;;;;;;;5156404;27;10356;-71
2022/04/27 10:48:03;;;;;;;;;5.50;5.00;;;;;;;;5159757;27;11627;-71
2022/04/27 10:50:29;;;;;;;;;4.00;4.00;;;;;;;;5159380;27;10611;-71
2022/04/27 10:52:55;;;;;;;;;3.25;3.25;;;;;;;;5149492;27;10361;-71
2022/04/27 10:55:33;;;;;;;;;4.50;3.75;;;;;;;;5147041;27;11644;-71
2022/04/27 10:58:11;;;;;;;;;2.50;2.50;;;;;;;;5149822;27;10608;-70
2022/04/27 11:00:56;;;;;;;;;4.00;4.00;;;;;;;;5149869;27;11704;-70
2022/04/27 11:03:22;;;;;;;;;3.75;3.00;;;;;;;;5147200;27;11407;-71
2022/04/27 11:05:47;;;;;;;;;2.25;2.25;;;;;;;;5149134;27;10448;-71
2022/04/27 11:08:12;;;;;;;;;5.00;5.00;;;;;;;;5149828;27;11297;-71
2022/04/27 11:10:38;;;;;;;;;3.25;3.25;;;;;;;;5147601;27;11421;-71
2022/04/27 11:13:05;;;;;;;;;3.50;3.50;;;;;;;;5153147;27;12900;-71
2022/04/27 11:15:30;;;;;;;;;6.00;5.00;;;;;;;;5152381;27;9866;-71
2022/04/27 11:17:57;;;;;;;;;4.25;4.00;;;;;;;;5150772;27;11295;-71
2022/04/27 11:20:33;;;;;;;;;4.00;4.00;;;;;;;;5153245;27;10602;-71
2022/04/27 11:22:59;;;;;;;;;4.00;4.00;;;;;;;;5153424;27;9636;-71
2022/04/27 11:25:25;;;;;;;;;3.00;3.00;;;;;;;;5151792;27;9565;-71
2022/04/27 11:27:51;;;;;;;;;3.25;3.25;;;;;;;;5151145;27;9518;-71
2022/04/27 11:30:17;;;;;;;;;3.00;2.00;;;;;;;;5152649;27;9812;-71
2022/04/27 11:32:45;;;;;;;;;3.50;3.00;;;;;;;;5149696;27;11065;-71
2022/04/27 11:35:10;;;;;;;;;3.75;3.75;;;;;;;;5149488;27;9956;-71
2022/04/27 11:37:37;;;;;;;;;3.75;3.00;;;;;;;;5152932;27;10487;-71
2022/04/27 11:40:13;;;;;;;;;4.50;4.00;;;;;;;;5151255;27;8796;-71
2022/04/27 11:42:46;;;;;;;;;4.75;3.00;;;;;;;;5153386;27;10382;-70
2022/04/27 11:45:12;;;;;;;;;3.00;1.00;;;;;;;;5160308;27;9803;-71
2022/04/27 11:47:37;;;;;;;;;3.25;3.25;;;;;;;;5162968;27;10324;-71
2022/04/27 11:50:04;;;;;;;;;5.25;4.00;;;;;;;;5151652;27;10873;-71
2022/04/27 11:52:36;;;;;;;;;3.00;3.00;;;;;;;;5149931;27;11457;-71
2022/04/27 11:55:09;;;;;;;;;4.00;4.00;;;;;;;;5149429;27;10444;-71
2022/04/27 11:57:34;;;;;;;;;5.00;4.00;;;;;;;;5150429;27;9834;-71
2022/04/27 11:59:59;;;;;;;;;3.00;3.00;;;;;;;;5149719;27;9990;-70
2022/04/27 12:02:26;;;;;;;;;5.25;5.00;;;;;;;;5150853;27;8943;-70
2022/04/27 12:04:55;;;;;;;;;4.25;4.25;;;;;;;;5148343;27;11083;-70
2022/04/27 12:07:21;;;;;;;;;7.00;5.25;;;;;;;;5149850;27;11457;-70
2022/04/27 12:09:59;;;;;;;;;3.75;3.75;;;;;;;;5150713;27;10570;-69
2022/04/27 12:12:26;;;;;;;;;2.75;2.75;;;;;;;;5151298;27;10882;-69
2022/04/27 12:14:51;;;;;;;;;4.25;4.00;;;;;;;;5148287;27;9991;-70
2022/04/27 12:17:35;;;;;;;;;6.00;4.75;;;;;;;;5148301;27;11310;-69
2022/04/27 12:20:01;;;;;;;;;4.75;4.75;;;;;;;;5149266;27;11367;-69
2022/04/27 12:22:26;;;;;;;;;4.25;4.25;;;;;;;;5141318;27;9857;-70
2022/04/27 12:24:51;;;;;;;;;4.00;4.00;;;;;;;;5141252;27;8804;-71
2022/04/27 12:27:20;;;;;;;;;6.25;5.00;;;;;;;;5158416;27;8777;-70
2022/04/27 12:29:46;;;;;;;;;4.25;4.25;;;;;;;;5161731;27;10393;-69
2022/04/27 12:32:11;;;;;;;;;3.75;2.25;;;;;;;;5152127;27;11367;-70
2022/04/27 12:37:31;;;;;;;;;3.25;3.25;;;;;;;;5148766;27;10316;-69
2022/04/27 12:40:10;;;;;;;;;5.25;4.25;;;;;;;;5148578;27;10072;-69
2022/04/27 12:42:37;;;;;;;;;7.00;5.00;;;;;;;;5149618;27;10888;-70
2022/04/27 12:45:07;;;;;;;;;4.00;4.00;;;;;;;;5140344;27;13941;-70
2022/04/27 12:47:44;;;;;;;;;3.25;3.25;;;;;;;;5138625;27;12244;-70
2022/04/27 12:50:11;;;;;;;;;4.50;4.50;;;;;;;;5145432;27;11390;-69
2022/04/27 12:52:37;;;;;;;;;3.75;3.75;;;;;;;;5148226;27;11740;-70
2022/04/27 12:55:04;;;;;;;;;4.00;4.00;;;;;;;;5149678;27;11433;-69
2022/04/27 12:57:45;;;;;;;;;5.00;4.50;;;;;;;;5147472;27;15141;-69
2022/04/27 13:00:11;;;;;;;;;5.00;5.00;;;;;;;;5155238;27;11808;-69
2022/04/27 13:02:36;;;;;;;;;4.00;4.00;;;;;;;;5153599;27;10027;-69
2022/04/27 13:05:02;;;;;;;;;6.00;5.00;;;;;;;;5147695;27;10169;-70
2022/04/27 13:07:27;;;;;;;;;5.75;5.00;;;;;;;;5146975;27;8923;-70
2022/04/27 13:12:38;;;;;;;;;4.00;4.00;;;;;;;;5161552;27;10457;-71
2022/04/27 13:15:05;;;;;;;;;4.00;4.00;;;;;;;;5157469;27;9977;-71
2022/04/27 13:17:30;;;;;;;;;4.50;3.25;;;;;;;;5146410;27;9957;-71
2022/04/27 13:19:55;;;;;;;;;4.00;4.00;;;;;;;;5149012;27;10911;-72
2022/04/27 13:22:22;;;;;;;;;5.00;4.50;;;;;;;;5150266;27;10808;-70
2022/04/27 13:24:47;;;;;;;;;9.75;6.75;;;;;;;;5148511;27;11588;-71
2022/04/27 13:27:12;;;;;;;;;5.75;5.75;;;;;;;;5148832;27;11627;-69
2022/04/27 13:29:38;;;;;;;;;5.00;4.75;;;;;;;;5150639;27;10108;-70
2022/04/27 13:32:03;;;;;;;;;2.25;2.25;;;;;;;;5148324;27;9509;-71
2022/04/27 13:34:29;;;;;;;;;5.00;5.00;;;;;;;;5148764;27;10288;-70
2022/04/27 13:36:55;;;;;;;;;5.25;3.50;;;;;;;;5149411;27;11277;-70
2022/04/27 13:39:20;;;;;;;;;7.75;7.00;;;;;;;;5147702;27;10481;-71
2022/04/27 13:41:45;;;;;;;;;10.50;8.25;;;;;;;;5147775;27;13245;-69
2022/04/27 13:44:11;;;;;;;;;5.25;5.25;;;;;;;;5146731;27;23478;-69
2022/04/27 13:46:36;;;;;;;;;6.50;6.50;;;;;;;;5150093;27;21400;-68
2022/04/27 13:49:02;;;;;;;;;9.75;9.25;;;;;;;;5147850;27;13856;-70
2022/04/27 13:51:27;;;;;;;;;6.50;6.25;;;;;;;;5160966;27;11273;-71
2022/04/27 13:53:54;;;;;;;;;5.75;5.75;;;;;;;;5161036;27;11529;-70
2022/04/27 13:56:19;;;;;;;;;4.75;4.25;;;;;;;;5157996;27;10357;-69
2022/04/27 13:58:44;;;;;;;;;6.75;6.75;;;;;;;;5159207;27;10325;-71
2022/04/27 14:01:10;;;;;;;;;4.25;4.25;;;;;;;;5159861;27;10258;-70
2022/04/27 14:03:35;;;;;;;;;4.50;3.00;;;;;;;;5159799;27;10320;-70
2022/04/27 14:06:00;;;;;;;;;4.00;4.00;;;;;;;;5159852;27;10884;-70
2022/04/27 21:04:11;;;;;;;;;4.00;4.00;;;;;;;;5171463;27;76918;-74
2022/04/27 21:06:36;;;;;;;;;1.00;1.00;;;;;;;;5157572;27;20698;-74
2022/04/27 21:09:02;;;;;;;;;1.00;1.00;;;;;;;;5157310;27;8776;-74
2022/04/27 21:11:27;;;;;;;;;0.00;0.00;;;;;;;;5147950;27;8815;-74
2022/04/27 21:13:53;;;;;;;;;1.00;1.00;;;;;;;;5142209;27;8939;-74
2022/04/27 21:16:18;;;;;;;;;0.00;0.00;;;;;;;;5149956;27;9060;-74
2022/04/27 21:18:43;;;;;;;;;0.00;0.00;;;;;;;;5157287;27;8787;-75
2022/04/27 21:21:10;;;;;;;;;0.00;0.00;;;;;;;;5156987;27;8775;-74
2022/04/27 21:23:36;;;;;;;;;1.00;1.00;;;;;;;;5158120;27;8791;-75
2022/04/27 21:26:01;;;;;;;;;1.50;0.75;;;;;;;;5152263;27;10727;-75
2022/04/27 21:28:27;;;;;;;;;1.00;1.00;;;;;;;;5155785;27;10511;-72
2022/04/27 21:30:52;;;;;;;;;0.25;0.25;;;;;;;;5155804;27;10335;-73
2022/04/27 21:33:17;;;;;;;;;1.00;1.00;;;;;;;;5155727;27;12931;-72
2022/04/27 21:35:43;;;;;;;;;0.75;0.75;;;;;;;;5156025;27;11267;-72
2022/04/27 21:38:08;;;;;;;;;1.50;1.50;;;;;;;;5155488;27;11572;-72
2022/04/27 21:40:35;;;;;;;;;1.00;1.00;;;;;;;;5156062;27;11429;-72
2022/04/27 21:43:00;;;;;;;;;0.75;0.75;;;;;;;;5157247;27;8807;-72
2022/04/27 21:45:27;;;;;;;;;1.75;1.75;;;;;;;;5156590;27;11997;-72
2022/04/27 21:47:52;;;;;;;;;0.75;0.75;;;;;;;;5156903;27;8792;-72
2022/04/27 21:50:18;;;;;;;;;0.75;0.75;;;;;;;;5156379;27;10863;-72
2022/04/27 21:52:43;;;;;;;;;1.00;1.00;;;;;;;;5156984;27;8849;-72
2022/04/27 21:55:09;;;;;;;;;1.00;1.00;;;;;;;;5156024;27;11303;-72
2022/04/27 21:57:34;;;;;;;;;0.00;0.00;;;;;;;;5156606;27;8804;-72
2022/04/27 22:00:00;;;;;;;;;1.00;1.00;;;;;;;;5155476;27;10701;-72